Current Conditions
Mostly Scattered
Clouds



Pressure
1005.92 (hPa) - 29.7 (inHG)
Visibility

6.2 (mimiles) - 10.0 (km)
   Temperature
9  °C
48°F
6  °C
Dewpoint
82  %
 Humidity
   Wind Speed
10  mph
9  kts
16  km/h
4.5  m/s
   Wind Direction
 260°
Due West
   Airport Data
EGTK
Location Oxford (Kidlington) 26 mi (41.83 km)
Metar :EGTK 061920Z 26009KT 9999 SCT026 BKN030 09/06 Q1006
Fri 6th December 19:20 pm
   Raw Metar Info
Raw METAR is the most common format in the world for the transmission of observational weather data. It is highly standardized through the International Civil Aviation Organization (ICAO), which allows it to be understood throughout most of the world.
   API Info
Data Provided by
https://www.checkwx.com/weather/EGTK
   © Info
CSS/SVG/PHP scripts were developed by weather34.com for use in the weather34 template © 2015-2019

Guide Info provided by Metar-Wikipedia